sensor_id;sensor_type;location;lat;lon;timestamp;P1;durP1;ratioP1;P2;durP2;ratioP2
52838;SDS011;39219;53.678;9.856;2023-03-09T00:00:47;13.93;;;7.00;;
52838;SDS011;39219;53.678;9.856;2023-03-09T00:03:14;14.55;;;7.13;;
52838;SDS011;39219;53.678;9.856;2023-03-09T00:05:41;14.18;;;6.70;;
52838;SDS011;39219;53.678;9.856;2023-03-09T00:08:08;13.55;;;6.47;;
52838;SDS011;39219;53.678;9.856;2023-03-09T00:10:37;15.45;;;6.82;;
52838;SDS011;39219;53.678;9.856;2023-03-09T00:13:04;13.68;;;6.45;;
52838;SDS011;39219;53.678;9.856;2023-03-09T00:15:31;11.85;;;6.32;;
52838;SDS011;39219;53.678;9.856;2023-03-09T00:17:57;13.73;;;6.35;;
52838;SDS011;39219;53.678;9.856;2023-03-09T00:20:24;14.57;;;6.90;;
52838;SDS011;39219;53.678;9.856;2023-03-09T00:22:52;11.85;;;6.20;;
52838;SDS011;39219;53.678;9.856;2023-03-09T00:25:18;15.65;;;6.53;;
52838;SDS011;39219;53.678;9.856;2023-03-09T00:27:46;11.93;;;6.10;;
52838;SDS011;39219;53.678;9.856;2023-03-09T00:30:13;13.63;;;6.20;;
52838;SDS011;39219;53.678;9.856;2023-03-09T00:32:40;12.60;;;6.50;;
52838;SDS011;39219;53.678;9.856;2023-03-09T00:35:07;12.35;;;6.50;;
52838;SDS011;39219;53.678;9.856;2023-03-09T00:37:34;13.23;;;6.05;;
52838;SDS011;39219;53.678;9.856;2023-03-09T00:40:02;11.60;;;5.80;;
52838;SDS011;39219;53.678;9.856;2023-03-09T00:42:31;12.00;;;5.68;;
52838;SDS011;39219;53.678;9.856;2023-03-09T00:44:57;12.63;;;6.30;;
52838;SDS011;39219;53.678;9.856;2023-03-09T00:47:24;11.70;;;5.90;;
52838;SDS011;39219;53.678;9.856;2023-03-09T00:49:51;13.43;;;6.07;;
52838;SDS011;39219;53.678;9.856;2023-03-09T00:52:18;11.60;;;6.00;;
52838;SDS011;39219;53.678;9.856;2023-03-09T00:54:44;13.90;;;6.30;;
52838;SDS011;39219;53.678;9.856;2023-03-09T00:57:10;12.95;;;5.90;;
52838;SDS011;39219;53.678;9.856;2023-03-09T00:59:36;13.15;;;6.03;;
52838;SDS011;39219;53.678;9.856;2023-03-09T01:02:03;13.15;;;5.78;;
52838;SDS011;39219;53.678;9.856;2023-03-09T01:04:29;14.68;;;5.93;;
52838;SDS011;39219;53.678;9.856;2023-03-09T01:06:57;11.85;;;5.88;;
52838;SDS011;39219;53.678;9.856;2023-03-09T01:09:23;14.18;;;5.97;;
52838;SDS011;39219;53.678;9.856;2023-03-09T01:11:49;12.68;;;5.28;;
52838;SDS011;39219;53.678;9.856;2023-03-09T01:14:15;12.75;;;5.85;;
52838;SDS011;39219;53.678;9.856;2023-03-09T01:16:42;12.23;;;5.82;;
52838;SDS011;39219;53.678;9.856;2023-03-09T01:19:08;13.13;;;5.60;;
52838;SDS011;39219;53.678;9.856;2023-03-09T01:21:34;16.63;;;6.13;;
52838;SDS011;39219;53.678;9.856;2023-03-09T01:24:02;13.98;;;5.90;;
52838;SDS011;39219;53.678;9.856;2023-03-09T01:26:28;12.85;;;6.13;;
52838;SDS011;39219;53.678;9.856;2023-03-09T01:28:54;12.98;;;6.13;;
52838;SDS011;39219;53.678;9.856;2023-03-09T01:31:21;15.00;;;5.75;;
52838;SDS011;39219;53.678;9.856;2023-03-09T01:33:47;11.93;;;5.68;;
52838;SDS011;39219;53.678;9.856;2023-03-09T01:36:15;12.35;;;5.50;;
52838;SDS011;39219;53.678;9.856;2023-03-09T01:38:41;13.10;;;6.00;;
52838;SDS011;39219;53.678;9.856;2023-03-09T01:41:09;12.38;;;6.38;;
52838;SDS011;39219;53.678;9.856;2023-03-09T01:43:36;12.38;;;5.80;;
52838;SDS011;39219;53.678;9.856;2023-03-09T01:46:25;12.93;;;6.22;;
52838;SDS011;39219;53.678;9.856;2023-03-09T01:48:52;11.90;;;5.97;;
52838;SDS011;39219;53.678;9.856;2023-03-09T01:51:20;13.48;;;6.15;;
52838;SDS011;39219;53.678;9.856;2023-03-09T01:53:47;13.90;;;5.97;;
52838;SDS011;39219;53.678;9.856;2023-03-09T01:56:15;13.40;;;6.22;;
52838;SDS011;39219;53.678;9.856;2023-03-09T01:58:42;12.98;;;6.38;;
52838;SDS011;39219;53.678;9.856;2023-03-09T02:01:09;14.38;;;6.30;;
52838;SDS011;39219;53.678;9.856;2023-03-09T02:03:36;13.27;;;6.53;;
52838;SDS011;39219;53.678;9.856;2023-03-09T02:06:04;12.88;;;5.90;;
52838;SDS011;39219;53.678;9.856;2023-03-09T02:08:32;13.00;;;6.22;;
52838;SDS011;39219;53.678;9.856;2023-03-09T02:11:00;13.10;;;6.50;;
52838;SDS011;39219;53.678;9.856;2023-03-09T02:13:30;15.63;;;6.75;;
52838;SDS011;39219;53.678;9.856;2023-03-09T02:15:57;14.63;;;6.95;;
52838;SDS011;39219;53.678;9.856;2023-03-09T02:18:24;15.10;;;7.45;;
52838;SDS011;39219;53.678;9.856;2023-03-09T02:20:54;13.02;;;6.38;;
52838;SDS011;39219;53.678;9.856;2023-03-09T02:23:23;15.48;;;6.80;;
52838;SDS011;39219;53.678;9.856;2023-03-09T02:25:51;14.95;;;6.72;;
52838;SDS011;39219;53.678;9.856;2023-03-09T02:28:22;14.98;;;6.35;;
52838;SDS011;39219;53.678;9.856;2023-03-09T02:30:49;13.60;;;7.07;;
52838;SDS011;39219;53.678;9.856;2023-03-09T02:33:22;13.73;;;6.82;;
52838;SDS011;39219;53.678;9.856;2023-03-09T02:35:50;14.02;;;6.47;;
52838;SDS011;39219;53.678;9.856;2023-03-09T02:38:17;15.48;;;6.97;;
52838;SDS011;39219;53.678;9.856;2023-03-09T02:40:43;14.73;;;6.57;;
52838;SDS011;39219;53.678;9.856;2023-03-09T02:43:09;14.85;;;7.07;;
52838;SDS011;39219;53.678;9.856;2023-03-09T02:45:37;13.35;;;6.53;;
52838;SDS011;39219;53.678;9.856;2023-03-09T02:48:04;15.75;;;6.45;;
52838;SDS011;39219;53.678;9.856;2023-03-09T02:50:31;14.77;;;6.32;;
52838;SDS011;39219;53.678;9.856;2023-03-09T02:52:57;13.00;;;6.40;;
52838;SDS011;39219;53.678;9.856;2023-03-09T02:55:25;15.02;;;6.40;;
52838;SDS011;39219;53.678;9.856;2023-03-09T02:57:51;14.80;;;6.40;;
52838;SDS011;39219;53.678;9.856;2023-03-09T03:00:18;15.88;;;7.03;;
52838;SDS011;39219;53.678;9.856;2023-03-09T03:02:47;13.70;;;6.35;;
52838;SDS011;39219;53.678;9.856;2023-03-09T03:05:13;13.93;;;6.68;;
52838;SDS011;39219;53.678;9.856;2023-03-09T03:07:40;15.48;;;6.30;;
52838;SDS011;39219;53.678;9.856;2023-03-09T03:10:06;12.68;;;6.30;;
52838;SDS011;39219;53.678;9.856;2023-03-09T03:12:33;15.75;;;6.53;;
52838;SDS011;39219;53.678;9.856;2023-03-09T03:14:59;16.00;;;6.78;;
52838;SDS011;39219;53.678;9.856;2023-03-09T03:17:26;16.38;;;6.70;;
52838;SDS011;39219;53.678;9.856;2023-03-09T03:19:53;13.70;;;6.63;;
52838;SDS011;39219;53.678;9.856;2023-03-09T03:22:19;14.27;;;6.60;;
52838;SDS011;39219;53.678;9.856;2023-03-09T03:24:46;14.55;;;6.72;;
52838;SDS011;39219;53.678;9.856;2023-03-09T03:27:12;15.80;;;7.05;;
52838;SDS011;39219;53.678;9.856;2023-03-09T03:29:38;14.32;;;6.70;;
52838;SDS011;39219;53.678;9.856;2023-03-09T03:32:05;15.43;;;7.10;;
52838;SDS011;39219;53.678;9.856;2023-03-09T03:34:31;14.23;;;6.60;;
52838;SDS011;39219;53.678;9.856;2023-03-09T03:36:59;14.45;;;6.90;;
52838;SDS011;39219;53.678;9.856;2023-03-09T03:39:25;14.30;;;7.00;;
52838;SDS011;39219;53.678;9.856;2023-03-09T03:41:51;13.82;;;6.60;;
52838;SDS011;39219;53.678;9.856;2023-03-09T03:44:18;14.25;;;6.80;;
52838;SDS011;39219;53.678;9.856;2023-03-09T03:46:44;14.73;;;6.20;;
52838;SDS011;39219;53.678;9.856;2023-03-09T03:49:10;15.30;;;7.30;;
52838;SDS011;39219;53.678;9.856;2023-03-09T03:51:37;16.30;;;6.55;;
52838;SDS011;39219;53.678;9.856;2023-03-09T03:54:04;13.73;;;6.38;;
52838;SDS011;39219;53.678;9.856;2023-03-09T03:56:30;13.63;;;6.50;;
52838;SDS011;39219;53.678;9.856;2023-03-09T03:58:57;14.23;;;7.00;;
52838;SDS011;39219;53.678;9.856;2023-03-09T04:01:23;13.68;;;6.30;;
52838;SDS011;39219;53.678;9.856;2023-03-09T04:03:50;15.38;;;6.70;;
52838;SDS011;39219;53.678;9.856;2023-03-09T04:06:16;14.63;;;6.75;;
52838;SDS011;39219;53.678;9.856;2023-03-09T04:08:42;16.27;;;7.15;;
52838;SDS011;39219;53.678;9.856;2023-03-09T04:11:10;14.00;;;6.60;;
52838;SDS011;39219;53.678;9.856;2023-03-09T04:13:36;13.40;;;6.65;;
52838;SDS011;39219;53.678;9.856;2023-03-09T04:16:03;15.65;;;7.10;;
52838;SDS011;39219;53.678;9.856;2023-03-09T04:18:29;16.10;;;6.80;;
52838;SDS011;39219;53.678;9.856;2023-03-09T04:20:55;15.57;;;7.10;;
52838;SDS011;39219;53.678;9.856;2023-03-09T04:23:22;14.70;;;6.53;;
52838;SDS011;39219;53.678;9.856;2023-03-09T04:25:53;14.65;;;6.93;;
52838;SDS011;39219;53.678;9.856;2023-03-09T04:28:20;15.35;;;6.65;;
52838;SDS011;39219;53.678;9.856;2023-03-09T04:30:46;16.15;;;7.40;;
52838;SDS011;39219;53.678;9.856;2023-03-09T04:33:13;16.58;;;6.68;;
52838;SDS011;39219;53.678;9.856;2023-03-09T04:35:39;14.18;;;7.15;;
52838;SDS011;39219;53.678;9.856;2023-03-09T04:38:07;14.85;;;6.80;;
52838;SDS011;39219;53.678;9.856;2023-03-09T04:40:33;16.63;;;7.30;;
52838;SDS011;39219;53.678;9.856;2023-03-09T04:43:00;15.32;;;7.15;;
52838;SDS011;39219;53.678;9.856;2023-03-09T04:45:28;16.63;;;7.72;;
52838;SDS011;39219;53.678;9.856;2023-03-09T04:47:54;16.40;;;6.93;;
52838;SDS011;39219;53.678;9.856;2023-03-09T04:50:20;15.23;;;7.15;;
52838;SDS011;39219;53.678;9.856;2023-03-09T04:52:47;15.45;;;7.07;;
52838;SDS011;39219;53.678;9.856;2023-03-09T04:55:14;14.00;;;6.82;;
52838;SDS011;39219;53.678;9.856;2023-03-09T04:57:41;18.10;;;7.88;;
52838;SDS011;39219;53.678;9.856;2023-03-09T05:00:07;17.08;;;6.95;;
52838;SDS011;39219;53.678;9.856;2023-03-09T05:02:37;18.02;;;7.18;;
52838;SDS011;39219;53.678;9.856;2023-03-09T05:05:04;14.77;;;6.97;;
52838;SDS011;39219;53.678;9.856;2023-03-09T05:07:30;14.68;;;7.50;;
52838;SDS011;39219;53.678;9.856;2023-03-09T05:09:56;15.10;;;7.25;;
52838;SDS011;39219;53.678;9.856;2023-03-09T05:12:23;15.35;;;6.95;;
52838;SDS011;39219;53.678;9.856;2023-03-09T05:14:56;16.55;;;6.93;;
52838;SDS011;39219;53.678;9.856;2023-03-09T05:17:22;15.88;;;7.05;;
52838;SDS011;39219;53.678;9.856;2023-03-09T05:19:49;15.90;;;7.40;;
52838;SDS011;39219;53.678;9.856;2023-03-09T05:22:16;16.67;;;7.32;;
52838;SDS011;39219;53.678;9.856;2023-03-09T05:24:42;15.43;;;7.13;;
52838;SDS011;39219;53.678;9.856;2023-03-09T05:27:08;17.58;;;7.43;;
52838;SDS011;39219;53.678;9.856;2023-03-09T05:29:35;16.38;;;7.50;;
52838;SDS011;39219;53.678;9.856;2023-03-09T05:32:01;16.48;;;7.68;;
52838;SDS011;39219;53.678;9.856;2023-03-09T05:34:27;17.05;;;7.88;;
52838;SDS011;39219;53.678;9.856;2023-03-09T05:36:55;18.17;;;7.45;;
52838;SDS011;39219;53.678;9.856;2023-03-09T05:39:21;16.95;;;7.72;;
52838;SDS011;39219;53.678;9.856;2023-03-09T05:41:47;16.70;;;7.75;;
52838;SDS011;39219;53.678;9.856;2023-03-09T05:44:14;15.45;;;7.32;;
52838;SDS011;39219;53.678;9.856;2023-03-09T05:46:40;17.60;;;7.82;;
52838;SDS011;39219;53.678;9.856;2023-03-09T05:49:06;15.98;;;7.45;;
52838;SDS011;39219;53.678;9.856;2023-03-09T05:51:33;16.98;;;7.97;;
52838;SDS011;39219;53.678;9.856;2023-03-09T05:54:01;16.23;;;7.63;;
52838;SDS011;39219;53.678;9.856;2023-03-09T05:56:27;16.90;;;7.65;;
52838;SDS011;39219;53.678;9.856;2023-03-09T05:58:53;15.70;;;7.43;;
52838;SDS011;39219;53.678;9.856;2023-03-09T06:01:22;18.58;;;8.35;;
52838;SDS011;39219;53.678;9.856;2023-03-09T06:03:48;16.50;;;7.60;;
52838;SDS011;39219;53.678;9.856;2023-03-09T06:06:15;16.17;;;7.20;;
52838;SDS011;39219;53.678;9.856;2023-03-09T06:08:41;15.93;;;7.55;;
52838;SDS011;39219;53.678;9.856;2023-03-09T06:11:09;16.70;;;7.75;;
52838;SDS011;39219;53.678;9.856;2023-03-09T06:13:36;18.25;;;8.13;;
52838;SDS011;39219;53.678;9.856;2023-03-09T06:16:02;16.77;;;7.70;;
52838;SDS011;39219;53.678;9.856;2023-03-09T06:18:29;18.65;;;8.30;;
52838;SDS011;39219;53.678;9.856;2023-03-09T06:20:58;17.83;;;7.95;;
52838;SDS011;39219;53.678;9.856;2023-03-09T06:23:24;16.55;;;7.80;;
52838;SDS011;39219;53.678;9.856;2023-03-09T06:25:51;17.90;;;7.80;;
52838;SDS011;39219;53.678;9.856;2023-03-09T06:28:19;18.00;;;7.65;;
52838;SDS011;39219;53.678;9.856;2023-03-09T06:30:45;18.73;;;7.93;;
52838;SDS011;39219;53.678;9.856;2023-03-09T06:33:11;20.00;;;8.00;;
52838;SDS011;39219;53.678;9.856;2023-03-09T06:35:38;16.02;;;7.43;;
52838;SDS011;39219;53.678;9.856;2023-03-09T06:38:05;16.98;;;7.20;;
52838;SDS011;39219;53.678;9.856;2023-03-09T06:40:31;16.90;;;7.53;;
52838;SDS011;39219;53.678;9.856;2023-03-09T06:42:58;15.48;;;7.22;;
52838;SDS011;39219;53.678;9.856;2023-03-09T06:45:25;17.13;;;7.90;;
52838;SDS011;39219;53.678;9.856;2023-03-09T06:47:52;17.33;;;8.23;;
52838;SDS011;39219;53.678;9.856;2023-03-09T06:50:18;18.02;;;7.65;;
52838;SDS011;39219;53.678;9.856;2023-03-09T06:52:45;17.17;;;7.60;;
52838;SDS011;39219;53.678;9.856;2023-03-09T06:55:11;18.13;;;7.90;;
52838;SDS011;39219;53.678;9.856;2023-03-09T06:57:37;17.83;;;7.70;;
52838;SDS011;39219;53.678;9.856;2023-03-09T07:00:04;16.48;;;8.25;;
52838;SDS011;39219;53.678;9.856;2023-03-09T07:02:33;16.60;;;8.32;;
52838;SDS011;39219;53.678;9.856;2023-03-09T07:04:59;16.50;;;7.75;;
52838;SDS011;39219;53.678;9.856;2023-03-09T07:07:25;18.38;;;7.85;;
52838;SDS011;39219;53.678;9.856;2023-03-09T07:09:52;17.88;;;8.10;;
52838;SDS011;39219;53.678;9.856;2023-03-09T07:12:18;19.65;;;8.45;;
52838;SDS011;39219;53.678;9.856;2023-03-09T07:14:45;17.90;;;8.40;;
52838;SDS011;39219;53.678;9.856;2023-03-09T07:17:11;22.27;;;8.70;;
52838;SDS011;39219;53.678;9.856;2023-03-09T07:19:39;16.73;;;7.90;;
52838;SDS011;39219;53.678;9.856;2023-03-09T07:22:06;19.73;;;8.93;;
52838;SDS011;39219;53.678;9.856;2023-03-09T07:24:33;19.92;;;8.00;;
52838;SDS011;39219;53.678;9.856;2023-03-09T07:26:59;18.58;;;8.02;;
52838;SDS011;39219;53.678;9.856;2023-03-09T07:29:26;16.17;;;7.57;;
52838;SDS011;39219;53.678;9.856;2023-03-09T07:31:52;17.75;;;7.95;;
52838;SDS011;39219;53.678;9.856;2023-03-09T07:34:20;18.08;;;7.85;;
52838;SDS011;39219;53.678;9.856;2023-03-09T07:36:48;17.00;;;7.95;;
52838;SDS011;39219;53.678;9.856;2023-03-09T07:39:15;17.48;;;8.32;;
52838;SDS011;39219;53.678;9.856;2023-03-09T07:41:41;16.92;;;8.68;;
52838;SDS011;39219;53.678;9.856;2023-03-09T07:44:07;18.20;;;8.50;;
52838;SDS011;39219;53.678;9.856;2023-03-09T07:46:34;16.60;;;8.40;;
52838;SDS011;39219;53.678;9.856;2023-03-09T07:49:00;17.63;;;8.25;;
52838;SDS011;39219;53.678;9.856;2023-03-09T07:51:26;16.77;;;7.85;;
52838;SDS011;39219;53.678;9.856;2023-03-09T07:53:55;18.70;;;8.88;;
52838;SDS011;39219;53.678;9.856;2023-03-09T07:56:21;16.98;;;8.00;;
52838;SDS011;39219;53.678;9.856;2023-03-09T07:58:50;17.15;;;8.05;;
52838;SDS011;39219;53.678;9.856;2023-03-09T08:01:17;16.33;;;7.60;;
52838;SDS011;39219;53.678;9.856;2023-03-09T08:03:44;16.63;;;7.47;;
52838;SDS011;39219;53.678;9.856;2023-03-09T08:06:10;16.05;;;7.47;;
52838;SDS011;39219;53.678;9.856;2023-03-09T08:08:37;17.85;;;8.40;;
52838;SDS011;39219;53.678;9.856;2023-03-09T08:11:05;18.23;;;8.18;;
52838;SDS011;39219;53.678;9.856;2023-03-09T08:13:32;16.50;;;7.72;;
52838;SDS011;39219;53.678;9.856;2023-03-09T08:15:59;15.45;;;7.53;;
52838;SDS011;39219;53.678;9.856;2023-03-09T08:18:26;14.35;;;7.43;;
52838;SDS011;39219;53.678;9.856;2023-03-09T08:20:52;19.00;;;7.93;;
52838;SDS011;39219;53.678;9.856;2023-03-09T08:23:19;15.93;;;7.28;;
52838;SDS011;39219;53.678;9.856;2023-03-09T08:25:51;14.35;;;7.07;;
52838;SDS011;39219;53.678;9.856;2023-03-09T08:28:19;17.02;;;7.47;;
52838;SDS011;39219;53.678;9.856;2023-03-09T08:30:45;14.85;;;7.13;;
52838;SDS011;39219;53.678;9.856;2023-03-09T08:33:11;14.57;;;7.70;;
52838;SDS011;39219;53.678;9.856;2023-03-09T08:35:38;13.93;;;7.45;;
52838;SDS011;39219;53.678;9.856;2023-03-09T08:38:04;13.98;;;7.10;;
52838;SDS011;39219;53.678;9.856;2023-03-09T08:40:30;14.15;;;7.43;;
52838;SDS011;39219;53.678;9.856;2023-03-09T08:42:57;13.65;;;7.20;;
52838;SDS011;39219;53.678;9.856;2023-03-09T08:45:24;13.55;;;7.05;;
52838;SDS011;39219;53.678;9.856;2023-03-09T08:47:51;13.27;;;6.97;;
52838;SDS011;39219;53.678;9.856;2023-03-09T08:50:17;12.63;;;6.53;;
52838;SDS011;39219;53.678;9.856;2023-03-09T08:52:43;16.08;;;7.10;;
52838;SDS011;39219;53.678;9.856;2023-03-09T08:55:10;13.43;;;6.65;;
52838;SDS011;39219;53.678;9.856;2023-03-09T08:57:36;12.07;;;6.28;;
52838;SDS011;39219;53.678;9.856;2023-03-09T09:00:03;14.15;;;6.75;;
52838;SDS011;39219;53.678;9.856;2023-03-09T09:02:31;14.05;;;6.68;;
52838;SDS011;39219;53.678;9.856;2023-03-09T09:04:57;12.35;;;6.30;;
52838;SDS011;39219;53.678;9.856;2023-03-09T09:07:24;13.65;;;6.30;;
52838;SDS011;39219;53.678;9.856;2023-03-09T09:09:50;11.43;;;5.63;;
52838;SDS011;39219;53.678;9.856;2023-03-09T09:12:16;12.00;;;6.20;;
52838;SDS011;39219;53.678;9.856;2023-03-09T09:14:43;10.40;;;5.68;;
52838;SDS011;39219;53.678;9.856;2023-03-09T09:17:09;11.07;;;5.65;;
52838;SDS011;39219;53.678;9.856;2023-03-09T09:19:38;11.63;;;5.78;;
52838;SDS011;39219;53.678;9.856;2023-03-09T09:22:04;13.00;;;6.03;;
52838;SDS011;39219;53.678;9.856;2023-03-09T09:24:31;11.70;;;5.90;;
52838;SDS011;39219;53.678;9.856;2023-03-09T09:27:01;10.85;;;5.95;;
52838;SDS011;39219;53.678;9.856;2023-03-09T09:29:27;12.02;;;5.82;;
52838;SDS011;39219;53.678;9.856;2023-03-09T09:31:54;13.50;;;6.15;;
52838;SDS011;39219;53.678;9.856;2023-03-09T09:34:20;11.90;;;5.97;;
52838;SDS011;39219;53.678;9.856;2023-03-09T09:36:48;12.45;;;5.57;;
52838;SDS011;39219;53.678;9.856;2023-03-09T09:39:15;12.10;;;5.85;;
52838;SDS011;39219;53.678;9.856;2023-03-09T09:41:43;11.65;;;5.90;;
52838;SDS011;39219;53.678;9.856;2023-03-09T09:44:11;12.98;;;6.22;;
52838;SDS011;39219;53.678;9.856;2023-03-09T09:46:39;12.50;;;6.07;;
52838;SDS011;39219;53.678;9.856;2023-03-09T09:49:05;11.40;;;6.07;;
52838;SDS011;39219;53.678;9.856;2023-03-09T09:51:40;11.77;;;6.15;;
52838;SDS011;39219;53.678;9.856;2023-03-09T09:54:13;11.20;;;5.32;;
52838;SDS011;39219;53.678;9.856;2023-03-09T09:56:44;10.98;;;5.70;;
52838;SDS011;39219;53.678;9.856;2023-03-09T09:59:13;12.65;;;6.00;;
52838;SDS011;39219;53.678;9.856;2023-03-09T10:01:42;13.10;;;6.00;;
52838;SDS011;39219;53.678;9.856;2023-03-09T10:04:13;11.65;;;6.10;;
52838;SDS011;39219;53.678;9.856;2023-03-09T10:06:40;10.77;;;5.85;;
52838;SDS011;39219;53.678;9.856;2023-03-09T10:09:09;11.32;;;6.30;;
52838;SDS011;39219;53.678;9.856;2023-03-09T10:11:38;13.20;;;6.28;;
52838;SDS011;39219;53.678;9.856;2023-03-09T10:14:07;11.93;;;5.88;;
52838;SDS011;39219;53.678;9.856;2023-03-09T10:16:37;13.13;;;5.78;;
52838;SDS011;39219;53.678;9.856;2023-03-09T10:19:05;11.02;;;5.60;;
52838;SDS011;39219;53.678;9.856;2023-03-09T10:21:34;11.55;;;5.70;;
52838;SDS011;39219;53.678;9.856;2023-03-09T10:24:10;11.57;;;5.93;;
52838;SDS011;39219;53.678;9.856;2023-03-09T10:26:41;11.25;;;5.47;;
52838;SDS011;39219;53.678;9.856;2023-03-09T10:29:12;11.27;;;5.68;;
52838;SDS011;39219;53.678;9.856;2023-03-09T10:31:41;10.02;;;5.63;;
52838;SDS011;39219;53.678;9.856;2023-03-09T10:34:11;10.40;;;5.25;;
52838;SDS011;39219;53.678;9.856;2023-03-09T10:36:40;11.27;;;5.88;;
52838;SDS011;39219;53.678;9.856;2023-03-09T10:39:10;11.90;;;5.72;;
52838;SDS011;39219;53.678;9.856;2023-03-09T10:41:38;12.00;;;5.95;;
52838;SDS011;39219;53.678;9.856;2023-03-09T10:44:06;12.52;;;5.65;;
52838;SDS011;39219;53.678;9.856;2023-03-09T10:46:52;13.13;;;5.70;;
52838;SDS011;39219;53.678;9.856;2023-03-09T10:49:19;10.63;;;5.70;;
52838;SDS011;39219;53.678;9.856;2023-03-09T10:51:53;10.15;;;5.47;;
52838;SDS011;39219;53.678;9.856;2023-03-09T10:54:21;12.77;;;6.07;;
52838;SDS011;39219;53.678;9.856;2023-03-09T10:56:48;10.48;;;5.55;;
52838;SDS011;39219;53.678;9.856;2023-03-09T10:59:18;11.40;;;5.45;;
52838;SDS011;39219;53.678;9.856;2023-03-09T11:01:45;11.77;;;5.68;;
52838;SDS011;39219;53.678;9.856;2023-03-09T11:04:25;15.25;;;5.95;;
52838;SDS011;39219;53.678;9.856;2023-03-09T11:06:52;11.50;;;5.40;;
52838;SDS011;39219;53.678;9.856;2023-03-09T11:09:19;11.85;;;5.63;;
52838;SDS011;39219;53.678;9.856;2023-03-09T11:11:47;11.02;;;5.32;;
52838;SDS011;39219;53.678;9.856;2023-03-09T11:14:22;13.05;;;5.50;;
52838;SDS011;39219;53.678;9.856;2023-03-09T11:16:50;10.90;;;5.65;;
52838;SDS011;39219;53.678;9.856;2023-03-09T11:19:17;9.32;;;4.82;;
52838;SDS011;39219;53.678;9.856;2023-03-09T11:21:47;10.02;;;4.97;;
52838;SDS011;39219;53.678;9.856;2023-03-09T11:24:16;10.20;;;5.50;;
52838;SDS011;39219;53.678;9.856;2023-03-09T11:26:43;12.63;;;5.63;;
52838;SDS011;39219;53.678;9.856;2023-03-09T11:29:13;10.70;;;5.25;;
52838;SDS011;39219;53.678;9.856;2023-03-09T11:31:45;8.75;;;5.13;;
52838;SDS011;39219;53.678;9.856;2023-03-09T11:34:13;8.93;;;5.10;;
52838;SDS011;39219;53.678;9.856;2023-03-09T11:36:41;8.95;;;5.03;;
52838;SDS011;39219;53.678;9.856;2023-03-09T11:39:11;8.15;;;4.50;;
52838;SDS011;39219;53.678;9.856;2023-03-09T11:41:39;9.45;;;4.32;;
52838;SDS011;39219;53.678;9.856;2023-03-09T11:44:08;7.93;;;4.28;;
52838;SDS011;39219;53.678;9.856;2023-03-09T11:46:37;7.82;;;4.30;;
52838;SDS011;39219;53.678;9.856;2023-03-09T11:49:06;9.38;;;4.88;;
52838;SDS011;39219;53.678;9.856;2023-03-09T11:51:34;9.18;;;4.88;;
52838;SDS011;39219;53.678;9.856;2023-03-09T11:54:05;8.85;;;4.68;;
52838;SDS011;39219;53.678;9.856;2023-03-09T11:56:35;8.20;;;4.55;;
52838;SDS011;39219;53.678;9.856;2023-03-09T11:59:05;9.10;;;4.35;;
52838;SDS011;39219;53.678;9.856;2023-03-09T12:01:34;7.78;;;4.30;;
52838;SDS011;39219;53.678;9.856;2023-03-09T12:04:01;8.30;;;4.03;;
52838;SDS011;39219;53.678;9.856;2023-03-09T12:06:38;8.00;;;4.20;;
52838;SDS011;39219;53.678;9.856;2023-03-09T12:09:07;7.93;;;4.18;;
52838;SDS011;39219;53.678;9.856;2023-03-09T12:11:36;7.05;;;3.80;;
52838;SDS011;39219;53.678;9.856;2023-03-09T12:14:05;8.02;;;4.50;;
52838;SDS011;39219;53.678;9.856;2023-03-09T12:16:36;7.93;;;4.18;;
52838;SDS011;39219;53.678;9.856;2023-03-09T12:19:05;10.13;;;4.40;;
52838;SDS011;39219;53.678;9.856;2023-03-09T12:21:39;7.80;;;4.05;;
52838;SDS011;39219;53.678;9.856;2023-03-09T12:24:18;6.50;;;3.72;;
52838;SDS011;39219;53.678;9.856;2023-03-09T12:26:45;7.47;;;4.13;;
52838;SDS011;39219;53.678;9.856;2023-03-09T12:29:21;9.02;;;4.68;;
52838;SDS011;39219;53.678;9.856;2023-03-09T12:34:37;9.00;;;4.85;;
52838;SDS011;39219;53.678;9.856;2023-03-09T12:39:56;9.68;;;5.38;;
52838;SDS011;39219;53.678;9.856;2023-03-09T12:42:27;10.23;;;5.10;;
52838;SDS011;39219;53.678;9.856;2023-03-09T12:44:58;10.65;;;5.70;;
52838;SDS011;39219;53.678;9.856;2023-03-09T12:47:25;9.15;;;4.80;;
52838;SDS011;39219;53.678;9.856;2023-03-09T12:49:59;9.00;;;4.88;;
52838;SDS011;39219;53.678;9.856;2023-03-09T12:52:32;10.80;;;5.72;;
52838;SDS011;39219;53.678;9.856;2023-03-09T12:55:02;10.45;;;5.18;;
52838;SDS011;39219;53.678;9.856;2023-03-09T12:57:29;8.90;;;5.05;;
52838;SDS011;39219;53.678;9.856;2023-03-09T13:00:10;10.82;;;5.10;;
52838;SDS011;39219;53.678;9.856;2023-03-09T13:02:37;10.52;;;5.25;;
52838;SDS011;39219;53.678;9.856;2023-03-09T13:05:19;9.70;;;5.38;;
52838;SDS011;39219;53.678;9.856;2023-03-09T13:07:51;12.95;;;5.63;;
52838;SDS011;39219;53.678;9.856;2023-03-09T13:10:20;10.00;;;5.45;;
52838;SDS011;39219;53.678;9.856;2023-03-09T13:12:53;11.32;;;5.47;;
52838;SDS011;39219;53.678;9.856;2023-03-09T13:15:20;11.15;;;5.47;;
52838;SDS011;39219;53.678;9.856;2023-03-09T13:18:03;9.43;;;5.40;;
52838;SDS011;39219;53.678;9.856;2023-03-09T13:20:33;12.23;;;5.70;;
52838;SDS011;39219;53.678;9.856;2023-03-09T13:23:02;10.00;;;5.82;;
52838;SDS011;39219;53.678;9.856;2023-03-09T13:25:32;12.50;;;5.95;;
52838;SDS011;39219;53.678;9.856;2023-03-09T13:28:04;9.18;;;5.80;;
52838;SDS011;39219;53.678;9.856;2023-03-09T13:30:41;10.80;;;6.00;;
52838;SDS011;39219;53.678;9.856;2023-03-09T13:33:11;10.80;;;6.05;;
52838;SDS011;39219;53.678;9.856;2023-03-09T13:35:41;9.40;;;5.70;;
52838;SDS011;39219;53.678;9.856;2023-03-09T13:38:12;9.32;;;4.85;;
52838;SDS011;39219;53.678;9.856;2023-03-09T13:40:48;9.80;;;5.65;;
52838;SDS011;39219;53.678;9.856;2023-03-09T13:43:15;10.93;;;5.32;;
52838;SDS011;39219;53.678;9.856;2023-03-09T13:45:43;9.35;;;5.38;;
52838;SDS011;39219;53.678;9.856;2023-03-09T13:48:19;11.60;;;5.57;;
52838;SDS011;39219;53.678;9.856;2023-03-09T13:50:45;9.55;;;5.57;;
52838;SDS011;39219;53.678;9.856;2023-03-09T13:53:20;9.48;;;5.95;;
52838;SDS011;39219;53.678;9.856;2023-03-09T13:55:54;10.77;;;5.55;;
52838;SDS011;39219;53.678;9.856;2023-03-09T13:58:20;10.55;;;5.70;;
52838;SDS011;39219;53.678;9.856;2023-03-09T14:00:52;10.90;;;5.93;;
52838;SDS011;39219;53.678;9.856;2023-03-09T14:03:19;10.27;;;5.90;;
52838;SDS011;39219;53.678;9.856;2023-03-09T14:05:52;10.32;;;5.63;;
52838;SDS011;39219;53.678;9.856;2023-03-09T14:08:19;9.70;;;5.53;;
52838;SDS011;39219;53.678;9.856;2023-03-09T14:10:46;9.63;;;5.65;;
52838;SDS011;39219;53.678;9.856;2023-03-09T14:13:15;11.05;;;5.65;;
52838;SDS011;39219;53.678;9.856;2023-03-09T14:15:44;9.05;;;5.70;;
52838;SDS011;39219;53.678;9.856;2023-03-09T14:18:15;10.07;;;5.72;;
52838;SDS011;39219;53.678;9.856;2023-03-09T14:20:45;8.95;;;5.32;;
52838;SDS011;39219;53.678;9.856;2023-03-09T14:23:15;10.38;;;5.88;;
52838;SDS011;39219;53.678;9.856;2023-03-09T14:25:41;10.57;;;5.80;;
52838;SDS011;39219;53.678;9.856;2023-03-09T14:31:09;11.40;;;6.00;;
52838;SDS011;39219;53.678;9.856;2023-03-09T14:33:36;10.65;;;5.75;;
52838;SDS011;39219;53.678;9.856;2023-03-09T14:36:04;10.98;;;6.28;;
52838;SDS011;39219;53.678;9.856;2023-03-09T14:38:30;11.65;;;5.82;;
52838;SDS011;39219;53.678;9.856;2023-03-09T14:41:12;10.55;;;5.68;;
52838;SDS011;39219;53.678;9.856;2023-03-09T14:43:42;10.68;;;5.68;;
52838;SDS011;39219;53.678;9.856;2023-03-09T14:46:10;11.13;;;5.88;;
52838;SDS011;39219;53.678;9.856;2023-03-09T14:48:39;10.50;;;5.85;;